createdAt,value
2024-05-09T00:00:45.558Z,9.38
2024-05-09T00:03:12.853Z,8.43
2024-05-09T00:05:44.068Z,6.30
2024-05-09T00:08:11.721Z,7.13
2024-05-09T00:10:40.403Z,7.35
2024-05-09T00:13:08.738Z,6.05
2024-05-09T00:15:36.694Z,5.75
2024-05-09T00:18:05.333Z,6.20
2024-05-09T00:20:38.527Z,5.68
2024-05-09T00:23:09.340Z,5.32
2024-05-09T00:25:37.230Z,6.97
2024-05-09T00:28:04.443Z,6.32
2024-05-09T00:30:35.673Z,6.35
2024-05-09T00:33:08.986Z,6.40
2024-05-09T00:35:37.289Z,6.32
2024-05-09T00:38:04.828Z,6.50
2024-05-09T00:40:40.251Z,8.13
2024-05-09T00:43:10.215Z,6.47
2024-05-09T00:45:37.362Z,7.55
2024-05-09T00:48:07.485Z,6.03
2024-05-09T00:50:38.012Z,4.70
2024-05-09T00:53:06.958Z,6.18
2024-05-09T00:55:36.653Z,6.38
2024-05-09T00:58:06.044Z,9.27
2024-05-09T01:00:38.997Z,6.68
2024-05-09T01:03:09.478Z,6.05
2024-05-09T01:05:39.080Z,7.07
2024-05-09T01:08:07.139Z,5.35
2024-05-09T01:10:35.813Z,6.43
2024-05-09T01:13:04.608Z,4.82
2024-05-09T01:15:31.928Z,5.95
2024-05-09T01:18:01.721Z,6.82
2024-05-09T01:20:39.153Z,6.53
2024-05-09T01:23:10.068Z,6.03
2024-05-09T01:25:37.423Z,6.90
2024-05-09T01:28:04.679Z,5.93
2024-05-09T01:30:35.260Z,5.22
2024-05-09T01:33:06.129Z,6.68
2024-05-09T01:38:02.571Z,5.32
2024-05-09T01:40:37.135Z,5.50
2024-05-09T01:43:07.665Z,8.48
2024-05-09T01:45:34.817Z,5.88
2024-05-09T01:48:02.546Z,5.88
2024-05-09T01:50:38.006Z,5.38
2024-05-09T01:53:14.073Z,5.78
2024-05-09T01:55:42.090Z,7.07
2024-05-09T01:58:09.602Z,6.03
2024-05-09T02:00:40.764Z,8.38
2024-05-09T02:03:13.011Z,6.15
2024-05-09T02:05:43.157Z,7.53
2024-05-09T02:08:15.396Z,5.45
2024-05-09T02:10:44.121Z,6.45
2024-05-09T02:13:11.393Z,8.07
2024-05-09T02:15:38.432Z,5.10
2024-05-09T02:18:06.146Z,7.03
2024-05-09T02:20:36.456Z,5.65
2024-05-09T02:23:06.156Z,5.70
2024-05-09T02:25:36.740Z,5.60
2024-05-09T02:28:03.737Z,5.40
2024-05-09T02:30:38.795Z,5.30
2024-05-09T02:33:10.808Z,7.88
2024-05-09T02:35:39.948Z,8.80
2024-05-09T02:38:09.535Z,5.53
2024-05-09T02:40:39.338Z,12.00
2024-05-09T02:45:35.489Z,7.68
2024-05-09T02:48:02.922Z,7.38
2024-05-09T02:50:37.163Z,5.80
2024-05-09T02:53:10.126Z,9.38
2024-05-09T02:55:38.089Z,8.90
2024-05-09T02:58:06.957Z,7.00
2024-05-09T03:00:39.494Z,9.18
2024-05-09T03:03:10.998Z,11.65
2024-05-09T03:05:40.473Z,7.88
2024-05-09T03:08:08.003Z,8.07
2024-05-09T03:10:37.425Z,6.82
2024-05-09T03:13:12.896Z,8.23
2024-05-09T03:15:41.255Z,6.95
2024-05-09T03:18:09.053Z,6.80
2024-05-09T03:20:37.178Z,9.52
2024-05-09T03:23:06.402Z,7.80
2024-05-09T03:25:34.636Z,7.32
2024-05-09T03:28:01.769Z,11.15
2024-05-09T03:30:38.948Z,9.20
2024-05-09T03:33:15.533Z,7.38
2024-05-09T03:35:43.882Z,6.85
2024-05-09T03:38:11.199Z,6.78
2024-05-09T03:40:49.020Z,7.45
2024-05-09T03:43:16.830Z,8.35
2024-05-09T03:45:44.097Z,7.45
2024-05-09T03:48:12.678Z,7.88
2024-05-09T03:50:40.117Z,8.25
2024-05-09T03:53:10.575Z,7.75
2024-05-09T03:58:08.040Z,6.30
2024-05-09T04:00:38.801Z,7.05
2024-05-09T04:03:09.718Z,7.80
2024-05-09T04:05:41.337Z,7.63
2024-05-09T04:08:09.850Z,6.93
2024-05-09T04:10:37.016Z,9.23
2024-05-09T04:13:04.487Z,6.18
2024-05-09T04:15:31.992Z,8.65
2024-05-09T04:17:59.424Z,7.45
2024-05-09T04:20:37.359Z,8.10
2024-05-09T04:23:08.615Z,6.78
2024-05-09T04:25:36.206Z,13.20
2024-05-09T04:28:03.249Z,7.18
2024-05-09T04:30:36.763Z,8.27
2024-05-09T04:33:08.276Z,9.18
2024-05-09T04:38:05.800Z,7.70
2024-05-09T04:40:35.906Z,7.22
2024-05-09T04:43:05.054Z,7.63
2024-05-09T04:45:32.103Z,8.65
2024-05-09T04:47:59.224Z,7.85
2024-05-09T04:50:35.433Z,11.18
2024-05-09T04:53:06.878Z,9.90
2024-05-09T04:55:34.429Z,7.95
2024-05-09T04:58:01.870Z,10.05
2024-05-09T05:00:35.804Z,7.97
2024-05-09T05:03:07.211Z,10.00
2024-05-09T05:08:05.682Z,10.15
2024-05-09T05:10:36.278Z,7.47
2024-05-09T05:13:21.092Z,9.10
2024-05-09T05:15:50.198Z,11.85
2024-05-09T05:18:18.202Z,7.97
2024-05-09T05:20:45.721Z,6.72
2024-05-09T05:23:15.041Z,8.40
2024-05-09T05:25:42.646Z,7.47
2024-05-09T05:28:11.200Z,7.22
2024-05-09T05:30:39.083Z,9.20
2024-05-09T05:33:07.607Z,9.98
2024-05-09T05:35:35.988Z,8.65
2024-05-09T05:38:09.657Z,7.57
2024-05-09T05:40:38.849Z,8.60
2024-05-09T05:43:08.648Z,7.40
2024-05-09T05:45:35.832Z,8.88
2024-05-09T05:48:07.155Z,9.05
2024-05-09T05:50:37.234Z,11.80
2024-05-09T05:53:07.409Z,12.73
2024-05-09T05:55:35.513Z,8.98
2024-05-09T05:58:02.899Z,8.25
2024-05-09T06:00:37.411Z,10.13
2024-05-09T06:03:06.673Z,8.57
2024-05-09T06:05:36.233Z,7.82
2024-05-09T06:08:03.287Z,8.60
2024-05-09T06:10:37.612Z,10.48
2024-05-09T06:13:07.368Z,9.50
2024-05-09T06:15:34.423Z,7.90
2024-05-09T06:18:01.847Z,8.65
2024-05-09T06:20:35.652Z,11.45
2024-05-09T06:23:05.927Z,9.52
2024-05-09T06:25:33.281Z,14.35
2024-05-09T06:28:01.137Z,10.73
2024-05-09T06:30:36.831Z,10.45
2024-05-09T06:33:08.973Z,12.40
2024-05-09T06:35:36.830Z,11.30
2024-05-09T06:38:04.268Z,10.95
2024-05-09T06:40:37.354Z,9.90
2024-05-09T06:43:11.764Z,10.60
2024-05-09T06:45:39.868Z,10.93
2024-05-09T06:48:08.351Z,13.25
2024-05-09T06:50:38.098Z,12.30
2024-05-09T06:53:09.718Z,8.15
2024-05-09T06:58:06.983Z,11.15
2024-05-09T07:00:39.097Z,10.10
2024-05-09T07:03:14.734Z,9.15
2024-05-09T07:05:44.116Z,9.43
2024-05-09T07:08:11.925Z,8.90
2024-05-09T07:10:39.013Z,13.35
2024-05-09T07:13:13.331Z,10.10
2024-05-09T07:15:41.531Z,8.95
2024-05-09T07:18:17.381Z,8.93
2024-05-09T07:20:46.614Z,11.35
2024-05-09T07:23:14.106Z,8.32
2024-05-09T07:25:41.853Z,8.85
2024-05-09T07:28:17.206Z,7.28
2024-05-09T07:30:44.847Z,7.40
2024-05-09T07:33:23.158Z,7.70
2024-05-09T07:35:52.951Z,7.43
2024-05-09T07:38:20.229Z,8.52
2024-05-09T07:40:47.354Z,7.05
2024-05-09T07:43:15.279Z,7.57
2024-05-09T07:45:51.270Z,7.32
2024-05-09T07:52:39.106Z,7.15
2024-05-09T07:53:50.562Z,6.65
2024-05-09T07:56:22.300Z,5.40
2024-05-09T07:58:52.694Z,6.03
2024-05-09T08:01:20.736Z,5.47
2024-05-09T08:03:48.281Z,6.40
2024-05-09T08:06:15.451Z,9.60
2024-05-09T08:08:42.458Z,5.28
2024-05-09T08:11:09.468Z,5.50
2024-05-09T08:13:36.324Z,6.93
2024-05-09T08:16:03.598Z,5.50
2024-05-09T08:18:30.785Z,5.82
2024-05-09T08:20:58.085Z,5.97
2024-05-09T08:23:25.085Z,6.72
2024-05-09T08:25:53.041Z,6.65
2024-05-09T08:28:20.104Z,8.15
2024-05-09T08:30:47.388Z,5.45
2024-05-09T08:33:14.591Z,5.45
2024-05-09T08:35:41.476Z,9.75
2024-05-09T08:38:09.049Z,5.57
2024-05-09T08:40:37.779Z,6.13
2024-05-09T08:43:11.427Z,4.95
2024-05-09T08:45:43.576Z,5.40
2024-05-09T08:48:14.727Z,4.50
2024-05-09T08:50:43.089Z,5.82
2024-05-09T08:53:10.261Z,5.93
2024-05-09T08:55:41.527Z,6.65
2024-05-09T08:58:17.221Z,4.13
2024-05-09T09:00:46.305Z,5.97
2024-05-09T09:03:18.054Z,4.57
2024-05-09T09:06:05.383Z,7.13
2024-05-09T09:08:32.532Z,7.60
2024-05-09T09:10:59.886Z,8.85
2024-05-09T09:13:28.988Z,4.60
2024-05-09T09:15:58.685Z,5.65
2024-05-09T09:20:55.561Z,5.40
2024-05-09T09:23:22.584Z,5.18
2024-05-09T09:25:49.709Z,4.95
2024-05-09T09:28:16.750Z,5.65
2024-05-09T09:30:44.280Z,6.88
2024-05-09T09:33:12.101Z,4.38
2024-05-09T09:35:42.059Z,7.30
2024-05-09T09:38:10.807Z,6.05
2024-05-09T09:40:49.544Z,5.38
2024-05-09T09:43:23.166Z,5.93
2024-05-09T09:45:52.237Z,5.72
2024-05-09T09:48:21.260Z,7.50
2024-05-09T09:50:50.833Z,5.97
2024-05-09T09:53:18.519Z,4.57
2024-05-09T09:55:46.529Z,8.50
2024-05-09T09:58:16.339Z,7.28
2024-05-09T10:00:44.937Z,4.80
2024-05-09T10:03:12.251Z,9.45
2024-05-09T10:05:42.103Z,5.00
2024-05-09T10:08:12.965Z,9.80
2024-05-09T10:10:45.520Z,4.25
2024-05-09T10:13:12.658Z,17.02
2024-05-09T10:15:47.146Z,7.22
2024-05-09T10:18:15.048Z,6.95
2024-05-09T10:20:46.341Z,8.40
2024-05-09T10:23:26.775Z,7.57
2024-05-09T10:25:57.457Z,10.93
2024-05-09T10:28:28.756Z,8.75
2024-05-09T10:31:13.544Z,6.63
2024-05-09T10:33:46.634Z,7.82
2024-05-09T10:36:31.513Z,6.32
2024-05-09T10:38:59.944Z,5.82
2024-05-09T10:41:26.865Z,8.10
2024-05-09T10:43:53.774Z,7.68
2024-05-09T10:46:20.779Z,7.78
2024-05-09T10:48:49.255Z,6.55
2024-05-09T10:51:21.578Z,7.13
2024-05-09T10:53:49.492Z,8.38
2024-05-09T10:56:17.201Z,5.93
2024-05-09T10:58:44.372Z,7.28
2024-05-09T11:01:13.480Z,6.90
2024-05-09T11:03:41.031Z,13.53
2024-05-09T11:06:09.800Z,9.50
2024-05-09T11:08:37.298Z,6.05
2024-05-09T11:11:07.740Z,8.65
2024-05-09T11:13:36.981Z,7.75
2024-05-09T11:16:05.338Z,6.50
2024-05-09T11:18:37.885Z,9.75
2024-05-09T11:21:12.688Z,7.13
2024-05-09T11:23:40.252Z,8.38
2024-05-09T11:26:07.436Z,10.05
2024-05-09T11:28:35.400Z,8.82
2024-05-09T11:31:10.388Z,5.85
2024-05-09T11:33:43.720Z,8.82
2024-05-09T11:36:11.071Z,7.90
2024-05-09T11:38:39.187Z,11.23
2024-05-09T11:41:07.440Z,8.13
2024-05-09T11:43:34.407Z,9.80
2024-05-09T11:46:02.904Z,8.73
2024-05-09T11:48:30.661Z,8.80
2024-05-09T11:50:57.807Z,8.38
2024-05-09T11:53:24.692Z,10.45
2024-05-09T11:55:51.622Z,8.23
2024-05-09T11:58:19.308Z,7.13
2024-05-09T12:00:47.084Z,7.82
2024-05-09T12:03:14.819Z,9.52
2024-05-09T12:05:42.302Z,8.95
2024-05-09T12:08:09.743Z,8.23
2024-05-09T12:10:37.340Z,8.93
2024-05-09T12:13:06.494Z,10.68
2024-05-09T12:15:37.547Z,8.48
2024-05-09T12:18:08.007Z,6.53
2024-05-09T12:20:38.632Z,8.48
2024-05-09T12:23:09.478Z,11.18
2024-05-09T12:25:37.793Z,10.18
2024-05-09T12:28:05.050Z,7.63
2024-05-09T12:30:37.521Z,10.05
2024-05-09T12:33:12.744Z,11.00
2024-05-09T12:35:43.529Z,7.82
2024-05-09T12:38:13.911Z,8.18
2024-05-09T12:40:40.915Z,6.47
2024-05-09T12:43:08.875Z,10.00
2024-05-09T12:45:37.487Z,7.72
2024-05-09T12:48:07.439Z,8.63
2024-05-09T12:50:35.087Z,7.25
2024-05-09T12:53:03.875Z,10.32
2024-05-09T12:55:40.376Z,8.95
2024-05-09T12:58:15.801Z,7.20
2024-05-09T13:00:43.335Z,8.60
2024-05-09T13:03:10.620Z,7.95
2024-05-09T13:05:37.698Z,8.10
2024-05-09T13:08:05.097Z,10.15
2024-05-09T13:10:33.375Z,7.65
2024-05-09T13:13:01.921Z,9.55
2024-05-09T13:15:31.117Z,7.93
2024-05-09T13:18:01.996Z,6.80
2024-05-09T13:20:33.800Z,10.68
2024-05-09T13:23:05.503Z,10.18
2024-05-09T13:25:34.839Z,9.35
2024-05-09T13:28:07.637Z,7.38
2024-05-09T13:30:40.249Z,8.80
2024-05-09T13:33:14.036Z,9.75
2024-05-09T13:35:49.223Z,11.82
2024-05-09T13:38:21.343Z,8.40
2024-05-09T13:40:49.251Z,11.43
2024-05-09T13:43:17.599Z,8.00
2024-05-09T13:45:44.937Z,8.45
2024-05-09T13:48:12.092Z,7.15
2024-05-09T13:50:39.456Z,12.07
2024-05-09T13:53:07.819Z,8.65
2024-05-09T13:55:38.933Z,8.93
2024-05-09T13:58:06.961Z,8.70
2024-05-09T14:00:44.147Z,7.78
2024-05-09T14:03:17.639Z,8.30
2024-05-09T14:05:46.768Z,8.75
2024-05-09T14:08:15.588Z,7.95
2024-05-09T14:10:45.093Z,8.48
2024-05-09T14:13:13.092Z,9.32
2024-05-09T14:15:40.618Z,15.57
2024-05-09T14:18:11.424Z,8.75
2024-05-09T14:20:40.904Z,12.10
2024-05-09T14:23:07.879Z,8.90
2024-05-09T14:25:38.896Z,10.35
2024-05-09T14:28:08.952Z,8.55
2024-05-09T14:30:37.942Z,9.15
2024-05-09T14:33:08.682Z,12.80
2024-05-09T14:35:38.436Z,14.88
2024-05-09T14:38:07.166Z,9.85
2024-05-09T14:40:41.353Z,9.85
2024-05-09T14:43:12.492Z,9.43
2024-05-09T14:45:40.243Z,11.38
2024-05-09T14:48:07.885Z,8.27
2024-05-09T14:50:38.480Z,9.10
2024-05-09T14:53:08.584Z,13.70
2024-05-09T14:55:37.585Z,11.18
2024-05-09T14:58:10.569Z,10.43
2024-05-09T15:00:44.593Z,9.73
2024-05-09T15:03:15.359Z,8.55
2024-05-09T15:05:42.689Z,7.80
2024-05-09T15:08:09.685Z,7.88
2024-05-09T15:10:37.551Z,10.73
2024-05-09T15:13:07.979Z,9.95
2024-05-09T15:15:37.065Z,8.32
2024-05-09T15:18:05.146Z,10.98
2024-05-09T15:20:36.034Z,10.90
2024-05-09T15:23:07.019Z,12.10
2024-05-09T15:28:01.909Z,10.57
2024-05-09T15:30:32.126Z,8.70
2024-05-09T15:33:03.403Z,11.27
2024-05-09T15:35:30.680Z,9.82
2024-05-09T15:38:00.362Z,10.88
2024-05-09T15:40:36.147Z,8.75
2024-05-09T15:43:07.845Z,10.95
2024-05-09T15:45:35.685Z,11.27
2024-05-09T15:48:03.672Z,12.18
2024-05-09T15:50:37.638Z,14.23
2024-05-09T15:53:08.920Z,12.20
2024-05-09T15:55:40.213Z,10.43
2024-05-09T15:58:07.780Z,12.38
2024-05-09T16:00:40.064Z,12.40
2024-05-09T16:03:13.636Z,14.68
2024-05-09T16:05:44.228Z,10.00
2024-05-09T16:08:12.520Z,18.25
2024-05-09T16:10:44.216Z,14.18
2024-05-09T16:13:12.473Z,12.27
2024-05-09T16:15:39.702Z,10.75
2024-05-09T16:18:08.097Z,11.30
2024-05-09T16:20:40.060Z,13.40
2024-05-09T16:23:10.568Z,13.18
2024-05-09T16:25:37.851Z,14.90
2024-05-09T16:28:08.754Z,14.45
2024-05-09T16:30:40.452Z,14.35
2024-05-09T16:33:08.624Z,14.70
2024-05-09T16:35:37.074Z,12.45
2024-05-09T16:38:04.475Z,15.07
2024-05-09T16:40:37.990Z,17.40
2024-05-09T16:43:11.329Z,15.70
2024-05-09T16:45:40.179Z,13.02
2024-05-09T16:48:08.355Z,15.20
2024-05-09T16:50:36.508Z,14.57
2024-05-09T16:53:06.607Z,15.98
2024-05-09T16:58:02.625Z,14.57
2024-05-09T17:00:39.179Z,17.48
2024-05-09T17:03:10.814Z,15.00
2024-05-09T17:05:38.888Z,16.50
2024-05-09T17:08:06.859Z,16.42
2024-05-09T17:10:35.261Z,14.93
2024-05-09T17:13:04.761Z,11.63
2024-05-09T17:15:33.546Z,13.25
2024-05-09T17:18:01.907Z,15.63
2024-05-09T17:20:33.626Z,13.93
2024-05-09T17:23:04.827Z,13.18
2024-05-09T17:25:32.607Z,20.50
2024-05-09T17:28:06.093Z,17.30
2024-05-09T17:30:36.878Z,19.33
2024-05-09T17:33:07.474Z,18.40
2024-05-09T17:35:36.156Z,13.70
2024-05-09T17:38:03.753Z,18.48
2024-05-09T17:40:34.645Z,15.20
2024-05-09T17:43:05.156Z,15.23
2024-05-09T17:45:33.024Z,16.83
2024-05-09T17:48:00.751Z,17.52
2024-05-09T17:50:34.968Z,15.70
2024-05-09T17:53:04.842Z,15.50
2024-05-09T17:55:32.123Z,18.35
2024-05-09T17:57:59.347Z,17.80
2024-05-09T18:00:37.474Z,15.98
2024-05-09T18:03:08.767Z,18.98
2024-05-09T18:05:37.262Z,22.88
2024-05-09T18:08:06.323Z,20.30
2024-05-09T18:10:37.364Z,21.40
2024-05-09T18:13:08.934Z,18.70
2024-05-09T18:15:36.492Z,17.45
2024-05-09T18:18:04.536Z,15.93
2024-05-09T18:20:40.288Z,18.15
2024-05-09T18:23:13.272Z,16.60
2024-05-09T18:25:40.891Z,22.40
2024-05-09T18:28:08.436Z,18.02
2024-05-09T18:30:37.014Z,17.15
2024-05-09T18:33:07.162Z,18.83
2024-05-09T18:35:35.713Z,19.10
2024-05-09T18:38:03.288Z,22.90
2024-05-09T18:40:34.628Z,20.13
2024-05-09T18:43:06.465Z,18.73
2024-05-09T18:45:37.876Z,22.83
2024-05-09T18:48:06.618Z,25.15
2024-05-09T18:50:37.913Z,20.65
2024-05-09T18:53:07.708Z,18.80
2024-05-09T18:55:35.069Z,21.00
2024-05-09T18:58:03.159Z,20.15
2024-05-09T19:00:35.767Z,18.05
2024-05-09T19:03:09.699Z,24.67
2024-05-09T19:05:39.005Z,19.20
2024-05-09T19:08:07.946Z,32.83
2024-05-09T19:10:36.471Z,17.63
2024-05-09T19:13:08.645Z,16.80
2024-05-09T19:15:39.438Z,19.15
2024-05-09T19:18:11.195Z,20.80
2024-05-09T19:20:38.922Z,23.88
2024-05-09T19:23:07.070Z,22.15
2024-05-09T19:25:35.054Z,18.88
2024-05-09T19:28:02.945Z,22.13
2024-05-09T19:30:38.003Z,22.42
2024-05-09T19:33:09.450Z,21.95
2024-05-09T19:35:37.171Z,21.33
2024-05-09T19:38:06.265Z,20.50
2024-05-09T19:40:34.687Z,23.20
2024-05-09T19:43:04.991Z,20.40
2024-05-09T19:48:01.869Z,25.60
2024-05-09T19:50:37.184Z,23.88
2024-05-09T19:53:10.107Z,21.63
2024-05-09T19:55:37.505Z,27.35
2024-05-09T19:58:07.102Z,25.25
2024-05-09T20:00:37.425Z,23.63
2024-05-09T20:03:06.894Z,27.58
2024-05-09T20:05:34.332Z,26.02
2024-05-09T20:08:01.443Z,26.67
2024-05-09T20:10:32.583Z,26.15
2024-05-09T20:13:02.023Z,26.60
2024-05-09T20:15:29.202Z,24.48
2024-05-09T20:17:56.453Z,27.05
2024-05-09T20:20:33.399Z,25.38
2024-05-09T20:23:08.593Z,24.35
2024-05-09T20:25:35.640Z,28.55
2024-05-09T20:28:02.790Z,24.40
2024-05-09T20:30:32.871Z,24.52
2024-05-09T20:33:09.603Z,26.90
2024-05-09T20:35:37.211Z,26.55
2024-05-09T20:38:04.884Z,29.30
2024-05-09T20:40:35.899Z,28.23
2024-05-09T20:43:06.847Z,27.30
2024-05-09T20:45:35.787Z,25.75
2024-05-09T20:48:03.276Z,27.38
2024-05-09T20:50:37.523Z,26.08
2024-05-09T20:53:13.515Z,27.42
2024-05-09T20:55:41.842Z,22.77
2024-05-09T20:58:09.840Z,25.88
2024-05-09T21:00:40.801Z,26.17
2024-05-09T21:03:11.543Z,25.13
2024-05-09T21:05:39.512Z,24.77
2024-05-09T21:08:07.025Z,23.92
2024-05-09T21:10:35.245Z,27.08
2024-05-09T21:13:04.038Z,24.27
2024-05-09T21:15:31.808Z,28.30
2024-05-09T21:17:59.059Z,23.70
2024-05-09T21:20:31.655Z,26.33
2024-05-09T21:23:00.774Z,24.30
2024-05-09T21:25:27.902Z,23.90
2024-05-09T21:27:54.923Z,25.60
2024-05-09T21:30:32.223Z,25.70
2024-05-09T21:33:10.433Z,26.52
2024-05-09T21:35:38.754Z,24.48
2024-05-09T21:38:05.869Z,26.95
2024-05-09T21:40:35.288Z,26.38
2024-05-09T21:43:04.752Z,27.35
2024-05-09T21:45:32.429Z,24.33
2024-05-09T21:47:59.646Z,24.42
2024-05-09T21:50:35.418Z,29.05
2024-05-09T21:53:06.944Z,26.73
2024-05-09T21:55:35.215Z,28.38
2024-05-09T21:58:02.453Z,26.27
2024-05-09T22:00:36.913Z,29.27
2024-05-09T22:03:07.104Z,26.10
2024-05-09T22:05:35.211Z,28.15
2024-05-09T22:08:02.373Z,26.83
2024-05-09T22:10:34.177Z,23.58
2024-05-09T22:13:05.860Z,24.63
2024-05-09T22:15:39.053Z,25.92
2024-05-09T22:18:11.156Z,29.98
2024-05-09T22:20:45.448Z,20.65
2024-05-09T22:23:13.649Z,25.92
2024-05-09T22:25:40.654Z,27.98
2024-05-09T22:28:07.819Z,27.25
2024-05-09T22:30:39.121Z,25.23
2024-05-09T22:33:11.675Z,23.65
2024-05-09T22:35:40.095Z,28.30
2024-05-09T22:38:07.171Z,24.70
2024-05-09T22:40:44.852Z,23.90
2024-05-09T22:43:24.265Z,22.35
2024-05-09T22:45:54.919Z,27.35
2024-05-09T22:48:23.958Z,26.42
2024-05-09T22:50:51.773Z,24.65
2024-05-09T22:53:18.663Z,23.63
2024-05-09T22:55:45.625Z,25.67
2024-05-09T22:58:12.640Z,23.95
2024-05-09T23:00:40.006Z,23.63
2024-05-09T23:03:07.071Z,22.17
2024-05-09T23:05:34.167Z,20.52
2024-05-09T23:08:02.408Z,23.13
2024-05-09T23:10:35.699Z,24.98
2024-05-09T23:13:05.524Z,21.75
2024-05-09T23:15:32.732Z,23.80
2024-05-09T23:17:59.887Z,26.42
2024-05-09T23:20:35.854Z,25.05
2024-05-09T23:23:06.894Z,25.75
2024-05-09T23:25:34.183Z,26.73
2024-05-09T23:28:01.276Z,24.48
2024-05-09T23:30:36.205Z,23.23
2024-05-09T23:33:06.841Z,22.45
2024-05-09T23:35:33.883Z,22.63
2024-05-09T23:38:00.876Z,20.90
2024-05-09T23:40:37.477Z,23.50
2024-05-09T23:43:08.241Z,25.55
2024-05-09T23:45:36.657Z,24.00
2024-05-09T23:48:04.255Z,21.25
2024-05-09T23:50:35.961Z,22.30
2024-05-09T23:53:06.722Z,22.52
2024-05-09T23:55:34.931Z,23.83
2024-05-09T23:58:02.037Z,25.02
